createdAt,value
2022-10-24T00:00:00.278Z,11.80
2022-10-24T00:02:27.288Z,11.97
2022-10-24T00:04:54.186Z,11.30
2022-10-24T00:07:20.946Z,11.30
2022-10-24T00:09:47.791Z,12.20
2022-10-24T00:12:14.574Z,12.47
2022-10-24T00:14:41.337Z,11.93
2022-10-24T00:17:08.235Z,11.00
2022-10-24T00:19:35.190Z,12.27
2022-10-24T00:22:01.986Z,11.17
2022-10-24T00:24:29.054Z,10.97
2022-10-24T00:26:55.848Z,10.90
2022-10-24T00:29:22.976Z,11.03
2022-10-24T00:31:49.774Z,11.43
2022-10-24T00:34:17.298Z,11.80
2022-10-24T00:37:21.918Z,11.30
2022-10-24T00:39:48.827Z,10.33
2022-10-24T00:42:15.565Z,9.97
2022-10-24T00:44:42.822Z,11.20
2022-10-24T00:47:20.730Z,10.67
2022-10-24T00:49:47.577Z,10.90
2022-10-24T00:52:15.455Z,11.23
2022-10-24T00:54:42.868Z,10.50
2022-10-24T00:57:19.536Z,11.13
2022-10-24T00:59:47.979Z,11.00
2022-10-24T01:04:47.874Z,10.83
2022-10-24T01:07:23.712Z,10.17
2022-10-24T01:10:14.166Z,10.00
2022-10-24T01:13:01.261Z,9.00
2022-10-24T01:15:37.256Z,9.57
2022-10-24T01:18:11.436Z,9.63
2022-10-24T01:20:50.432Z,9.93
2022-10-24T01:23:17.264Z,9.60
2022-10-24T01:25:53.302Z,9.33
2022-10-24T01:28:38.978Z,8.30
2022-10-24T01:31:26.159Z,9.20
2022-10-24T01:33:56.805Z,8.73
2022-10-24T01:36:33.370Z,9.50
2022-10-24T01:39:03.362Z,9.07
2022-10-24T01:41:31.104Z,8.37
2022-10-24T01:44:13.891Z,8.00
2022-10-24T01:46:43.164Z,9.17
2022-10-24T01:49:13.143Z,7.77
2022-10-24T01:51:40.952Z,8.60
2022-10-24T01:54:09.119Z,8.13
2022-10-24T01:56:36.003Z,8.43
2022-10-24T01:59:05.971Z,9.07
2022-10-24T02:01:32.846Z,7.80
2022-10-24T02:04:01.981Z,8.93
2022-10-24T02:06:31.160Z,8.60
2022-10-24T02:09:00.473Z,8.77
2022-10-24T02:11:27.373Z,8.90
2022-10-24T02:14:00.182Z,8.50
2022-10-24T02:16:27.075Z,8.67
2022-10-24T02:18:55.365Z,8.23
2022-10-24T02:21:35.641Z,7.63
2022-10-24T02:24:14.635Z,8.23
2022-10-24T02:26:41.444Z,7.67
2022-10-24T02:29:11.325Z,7.80
2022-10-24T02:31:41.560Z,7.60
2022-10-24T02:34:09.702Z,7.70
2022-10-24T02:36:37.213Z,6.97
2022-10-24T02:39:05.558Z,7.03
2022-10-24T02:41:34.742Z,7.17
2022-10-24T02:44:02.436Z,7.63
2022-10-24T02:46:30.448Z,7.50
2022-10-24T02:49:02.363Z,7.00
2022-10-24T02:51:30.960Z,7.17
2022-10-24T02:53:58.921Z,6.57
2022-10-24T02:56:26.020Z,6.53
2022-10-24T02:58:52.839Z,7.77
2022-10-24T03:01:19.887Z,6.00
2022-10-24T03:03:47.002Z,5.03
2022-10-24T03:06:13.818Z,6.43
2022-10-24T03:08:40.582Z,5.33
2022-10-24T03:11:07.720Z,6.63
2022-10-24T03:13:34.696Z,6.60
2022-10-24T03:16:01.515Z,6.10
2022-10-24T03:18:28.380Z,6.80
2022-10-24T03:20:55.185Z,6.83
2022-10-24T03:23:22.310Z,6.20
2022-10-24T03:25:49.209Z,5.60
2022-10-24T03:28:16.095Z,6.07
2022-10-24T03:30:42.950Z,6.17
2022-10-24T03:33:09.713Z,6.00
2022-10-24T03:35:37.837Z,5.63
2022-10-24T03:38:04.623Z,6.60
2022-10-24T03:40:31.495Z,6.63
2022-10-24T03:42:58.271Z,6.37
2022-10-24T03:45:25.164Z,6.43
2022-10-24T03:47:52.175Z,7.30
2022-10-24T03:50:19.031Z,7.20
2022-10-24T03:52:46.111Z,6.33
2022-10-24T03:55:13.689Z,7.70
2022-10-24T03:57:40.711Z,7.63
2022-10-24T04:00:07.848Z,6.90
2022-10-24T04:02:35.159Z,6.23
2022-10-24T04:05:02.781Z,6.07
2022-10-24T04:07:29.689Z,5.53
2022-10-24T04:09:57.460Z,6.37
2022-10-24T04:12:24.866Z,6.77
2022-10-24T04:14:52.198Z,6.60
2022-10-24T04:17:18.945Z,6.50
2022-10-24T04:19:45.744Z,6.17
2022-10-24T04:22:12.654Z,6.50
2022-10-24T04:24:39.651Z,6.67
2022-10-24T04:27:07.115Z,4.17
2022-10-24T04:29:34.103Z,6.00
2022-10-24T04:32:00.968Z,5.83
2022-10-24T04:34:27.943Z,6.03
2022-10-24T04:36:54.761Z,5.17
2022-10-24T04:39:21.651Z,6.40
2022-10-24T04:41:48.457Z,5.63
2022-10-24T04:44:15.341Z,6.20
2022-10-24T04:46:42.103Z,6.07
2022-10-24T04:49:10.696Z,5.87
2022-10-24T04:51:37.537Z,6.30
2022-10-24T04:54:04.466Z,6.20
2022-10-24T04:56:31.309Z,6.50
2022-10-24T04:58:58.062Z,5.17
2022-10-24T05:01:24.979Z,5.53
2022-10-24T05:03:52.077Z,6.53
2022-10-24T05:06:18.849Z,6.20
2022-10-24T05:08:45.746Z,6.00
2022-10-24T05:11:12.578Z,6.60
2022-10-24T05:13:39.800Z,5.77
2022-10-24T05:16:07.205Z,6.00
2022-10-24T05:18:34.191Z,7.00
2022-10-24T05:21:01.492Z,5.93
2022-10-24T05:23:28.725Z,5.57
2022-10-24T05:25:55.613Z,5.43
2022-10-24T05:28:22.428Z,5.30
2022-10-24T05:30:49.268Z,6.00
2022-10-24T05:33:16.062Z,5.77
2022-10-24T05:35:43.133Z,5.33
2022-10-24T05:38:10.129Z,5.77
2022-10-24T05:40:36.956Z,5.87
2022-10-24T05:43:03.872Z,5.33
2022-10-24T05:45:30.738Z,4.93
2022-10-24T05:47:57.513Z,5.43
2022-10-24T05:50:24.446Z,5.23
2022-10-24T05:52:51.246Z,5.70
2022-10-24T05:55:18.536Z,6.50
2022-10-24T05:57:45.866Z,4.87
2022-10-24T06:00:14.280Z,5.77
2022-10-24T06:02:41.321Z,5.27
2022-10-24T06:05:08.887Z,5.70
2022-10-24T06:07:35.943Z,6.67
2022-10-24T06:10:03.562Z,6.67
2022-10-24T06:12:30.372Z,6.47
2022-10-24T06:14:57.602Z,6.40
2022-10-24T06:17:24.365Z,5.73
2022-10-24T06:19:51.339Z,5.73
2022-10-24T06:22:18.796Z,6.40
2022-10-24T06:24:45.688Z,6.27
2022-10-24T06:27:12.537Z,5.97
2022-10-24T06:29:39.449Z,6.30
2022-10-24T06:32:06.251Z,5.90
2022-10-24T06:34:33.264Z,6.30
2022-10-24T06:37:00.143Z,7.90
2022-10-24T06:39:27.084Z,6.10
2022-10-24T06:41:53.959Z,6.17
2022-10-24T06:44:20.741Z,6.80
2022-10-24T06:46:47.661Z,6.07
2022-10-24T06:49:15.213Z,6.00
2022-10-24T06:51:42.088Z,6.23
2022-10-24T06:54:09.169Z,6.40
2022-10-24T06:56:36.028Z,6.37
2022-10-24T06:59:02.850Z,6.37
2022-10-24T07:01:31.795Z,6.80
2022-10-24T07:03:58.767Z,5.67
2022-10-24T07:06:27.320Z,4.93
2022-10-24T07:08:56.763Z,5.90
2022-10-24T07:11:23.685Z,6.00
2022-10-24T07:13:50.702Z,7.90
2022-10-24T07:16:17.788Z,6.20
2022-10-24T07:18:44.689Z,5.70
2022-10-24T07:21:14.490Z,6.33
2022-10-24T07:23:41.560Z,6.53
2022-10-24T07:26:11.094Z,6.30
2022-10-24T07:28:38.600Z,6.13
2022-10-24T07:31:05.889Z,5.90
2022-10-24T07:33:32.992Z,5.77
2022-10-24T07:35:59.854Z,6.30
2022-10-24T07:38:27.243Z,6.13
2022-10-24T07:40:54.175Z,6.33
2022-10-24T07:43:21.025Z,5.77
2022-10-24T07:45:51.804Z,5.80
2022-10-24T07:48:19.397Z,5.83
2022-10-24T07:50:47.128Z,5.57
2022-10-24T07:53:14.378Z,6.00
2022-10-24T07:55:41.556Z,6.00
2022-10-24T07:58:08.469Z,5.50
2022-10-24T08:00:35.502Z,6.20
2022-10-24T08:03:02.624Z,6.70
2022-10-24T08:05:29.517Z,5.77
2022-10-24T08:08:12.041Z,7.17
2022-10-24T08:10:43.279Z,7.33
2022-10-24T08:13:12.842Z,6.43
2022-10-24T08:15:40.630Z,6.03
2022-10-24T08:18:07.364Z,6.70
2022-10-24T08:20:34.646Z,7.20
2022-10-24T08:23:01.472Z,6.20
2022-10-24T08:25:28.379Z,5.70
2022-10-24T08:27:55.156Z,6.93
2022-10-24T08:30:22.173Z,5.70
2022-10-24T08:32:49.066Z,5.60
2022-10-24T08:35:17.058Z,6.50
2022-10-24T08:37:43.984Z,6.07
2022-10-24T08:40:19.390Z,5.67
2022-10-24T08:42:47.586Z,5.63
2022-10-24T08:45:30.708Z,5.67
2022-10-24T08:48:13.238Z,5.87
2022-10-24T08:50:42.349Z,5.90
2022-10-24T08:53:44.670Z,6.33
2022-10-24T08:56:12.040Z,6.03
2022-10-24T08:58:42.189Z,6.07
2022-10-24T09:01:14.679Z,5.70
2022-10-24T09:04:00.827Z,6.27
2022-10-24T09:06:29.057Z,5.73
2022-10-24T09:08:55.790Z,5.73
2022-10-24T09:11:22.557Z,5.37
2022-10-24T09:13:49.598Z,5.50
2022-10-24T09:16:18.809Z,5.90
2022-10-24T09:18:46.566Z,5.33
2022-10-24T09:21:15.472Z,5.50
2022-10-24T09:23:42.619Z,5.20
2022-10-24T09:26:15.247Z,5.97
2022-10-24T09:28:42.506Z,5.57
2022-10-24T09:31:18.306Z,6.67
2022-10-24T09:33:46.126Z,6.77
2022-10-24T09:36:13.813Z,7.30
2022-10-24T09:38:41.728Z,7.03
2022-10-24T09:41:15.933Z,6.70
2022-10-24T09:43:50.555Z,6.63
2022-10-24T09:46:28.663Z,6.57
2022-10-24T09:48:57.549Z,6.17
2022-10-24T09:51:26.683Z,7.17
2022-10-24T09:54:07.890Z,5.13
2022-10-24T09:56:36.349Z,5.70
2022-10-24T09:59:19.697Z,6.00
2022-10-24T10:01:46.686Z,6.27
2022-10-24T10:04:17.422Z,6.30
2022-10-24T10:06:45.520Z,5.70
2022-10-24T10:09:13.880Z,5.50
2022-10-24T10:11:49.388Z,6.13
2022-10-24T10:14:23.558Z,5.80
2022-10-24T10:17:05.321Z,6.67
2022-10-24T10:19:35.346Z,6.13
2022-10-24T10:22:03.625Z,6.87
2022-10-24T10:24:36.596Z,6.30
2022-10-24T10:27:23.318Z,6.90
2022-10-24T10:29:50.598Z,6.13
2022-10-24T10:32:26.254Z,6.47
2022-10-24T10:34:58.815Z,4.97
2022-10-24T10:37:32.431Z,5.57
2022-10-24T10:40:19.082Z,6.57
2022-10-24T10:42:56.767Z,4.87
2022-10-24T10:45:29.471Z,5.00
2022-10-24T10:48:15.783Z,4.80
2022-10-24T10:50:52.358Z,4.20
2022-10-24T10:53:30.496Z,4.43
2022-10-24T10:55:57.329Z,5.17
2022-10-24T11:01:06.795Z,4.37
2022-10-24T11:03:51.025Z,4.87
2022-10-24T11:06:23.617Z,5.30
2022-10-24T11:08:50.466Z,4.97
2022-10-24T11:11:23.356Z,4.30
2022-10-24T11:14:08.678Z,4.47
2022-10-24T11:16:36.046Z,4.90
2022-10-24T11:19:10.309Z,5.10
2022-10-24T11:21:37.774Z,4.70
2022-10-24T11:24:13.946Z,5.37
2022-10-24T11:26:43.894Z,4.90
2022-10-24T11:29:29.409Z,4.27
2022-10-24T11:32:11.134Z,4.80
2022-10-24T11:34:42.660Z,4.97
2022-10-24T11:37:12.245Z,5.03
2022-10-24T11:39:48.730Z,4.43
2022-10-24T11:42:25.995Z,4.40
2022-10-24T11:45:06.830Z,4.03
2022-10-24T11:47:48.667Z,4.93
2022-10-24T11:50:30.774Z,4.77
2022-10-24T11:53:12.540Z,5.10
2022-10-24T11:55:41.768Z,4.73
2022-10-24T11:58:14.490Z,4.40
2022-10-24T12:00:56.988Z,4.00
2022-10-24T12:03:42.329Z,4.40
2022-10-24T12:06:23.006Z,4.43
2022-10-24T12:08:52.889Z,6.20
2022-10-24T12:11:41.379Z,6.97
2022-10-24T12:14:26.120Z,5.37
2022-10-24T12:17:13.585Z,5.60
2022-10-24T12:19:41.991Z,6.20
2022-10-24T12:22:14.698Z,6.97
2022-10-24T12:24:41.748Z,6.33
2022-10-24T12:27:19.624Z,6.10
2022-10-24T12:29:59.669Z,5.57
2022-10-24T12:32:32.411Z,5.70
2022-10-24T12:35:29.849Z,5.50
2022-10-24T12:37:50.461Z,5.93
2022-10-24T12:40:36.052Z,6.43
2022-10-24T12:43:12.532Z,5.53
2022-10-24T12:45:39.431Z,5.23
2022-10-24T12:48:14.353Z,5.00
2022-10-24T12:50:41.352Z,5.63
2022-10-24T12:53:11.107Z,4.73
2022-10-24T12:55:39.793Z,4.40
2022-10-24T12:58:28.611Z,4.60
2022-10-24T13:00:59.878Z,4.43
2022-10-24T13:03:42.393Z,4.57
2022-10-24T13:06:12.284Z,4.00
2022-10-24T13:08:54.230Z,3.93
2022-10-24T13:11:39.526Z,3.90
2022-10-24T13:14:25.245Z,3.53
2022-10-24T13:17:01.143Z,4.03
2022-10-24T13:19:28.431Z,4.27
2022-10-24T13:21:56.348Z,4.50
2022-10-24T13:24:40.759Z,4.20
2022-10-24T13:27:12.525Z,4.50
2022-10-24T13:29:39.998Z,5.53
2022-10-24T13:32:06.845Z,7.27
2022-10-24T13:34:52.869Z,11.17
2022-10-24T13:37:24.558Z,5.40
2022-10-24T13:39:51.482Z,3.77
2022-10-24T13:42:21.168Z,4.60
2022-10-24T13:44:50.470Z,4.90
2022-10-24T13:47:20.489Z,4.07
2022-10-24T13:49:59.226Z,4.60
2022-10-24T13:52:29.102Z,5.20
2022-10-24T13:55:19.260Z,4.07
2022-10-24T13:58:04.800Z,5.00
2022-10-24T14:00:39.496Z,7.47
2022-10-24T14:03:13.069Z,7.77
2022-10-24T14:05:40.880Z,3.93
2022-10-24T14:08:08.362Z,7.20
2022-10-24T14:10:35.363Z,17.80
2022-10-24T14:13:02.289Z,6.73
2022-10-24T14:15:31.613Z,7.57
2022-10-24T14:18:00.079Z,13.47
2022-10-24T14:20:28.966Z,7.50
2022-10-24T14:22:56.167Z,4.40
2022-10-24T14:25:26.145Z,4.80
2022-10-24T14:27:57.706Z,5.77
2022-10-24T14:30:25.502Z,5.30
2022-10-24T14:33:10.925Z,4.40
2022-10-24T14:35:37.830Z,4.17
2022-10-24T14:38:09.573Z,4.27
2022-10-24T14:40:36.757Z,50.33
2022-10-24T14:43:04.129Z,5.70
2022-10-24T14:45:31.527Z,16.50
2022-10-24T14:47:59.240Z,6.60
2022-10-24T14:50:36.757Z,5.30
2022-10-24T14:53:04.641Z,4.87
2022-10-24T14:55:32.015Z,5.47
2022-10-24T14:57:58.977Z,4.40
2022-10-24T15:00:26.892Z,5.43
2022-10-24T15:02:54.719Z,5.33
2022-10-24T15:05:23.030Z,5.70
2022-10-24T15:08:16.518Z,5.53
2022-10-24T15:10:43.088Z,6.37
2022-10-24T15:13:15.036Z,5.60
2022-10-24T15:15:44.772Z,5.10
2022-10-24T15:18:25.286Z,4.80
2022-10-24T15:20:53.799Z,4.73
2022-10-24T15:23:22.667Z,4.90
2022-10-24T15:25:58.682Z,4.97
2022-10-24T15:28:35.811Z,10.70
2022-10-24T15:31:02.702Z,16.90
2022-10-24T15:33:29.634Z,6.17
2022-10-24T15:35:56.414Z,7.97
2022-10-24T15:38:23.464Z,5.43
2022-10-24T15:40:50.374Z,8.93
2022-10-24T15:43:18.230Z,22.13
2022-10-24T15:45:45.468Z,30.27
2022-10-24T15:48:12.330Z,9.00
2022-10-24T15:50:43.713Z,14.80
2022-10-24T15:53:12.652Z,12.23
2022-10-24T15:55:39.624Z,5.00
2022-10-24T15:58:11.367Z,14.50
2022-10-24T16:00:39.208Z,8.20
2022-10-24T16:03:08.127Z,5.20
2022-10-24T16:05:38.026Z,4.17
2022-10-24T16:08:05.049Z,4.17
2022-10-24T16:10:31.863Z,4.30
2022-10-24T16:12:58.771Z,4.43
2022-10-24T16:18:04.735Z,4.60
2022-10-24T16:20:31.771Z,4.90
2022-10-24T16:25:49.280Z,5.10
2022-10-24T16:28:17.679Z,4.90
2022-10-24T16:30:44.860Z,6.30
2022-10-24T16:33:11.925Z,5.73
2022-10-24T16:35:39.822Z,4.73
2022-10-24T16:38:07.859Z,5.97
2022-10-24T16:43:05.714Z,5.13
2022-10-24T16:45:32.872Z,5.87
2022-10-24T16:47:59.696Z,6.67
2022-10-24T16:50:28.789Z,5.97
2022-10-24T16:53:05.420Z,6.07
2022-10-24T16:55:32.789Z,8.97
2022-10-24T16:58:00.149Z,6.97
2022-10-24T17:00:27.049Z,7.13
2022-10-24T17:02:54.884Z,7.13
2022-10-24T17:05:24.667Z,7.93
2022-10-24T17:07:51.580Z,7.90
2022-10-24T17:10:22.120Z,8.77
2022-10-24T17:12:51.499Z,7.63
2022-10-24T17:15:21.972Z,10.70
2022-10-24T17:17:49.828Z,7.60
2022-10-24T17:20:17.580Z,7.43
2022-10-24T17:22:45.828Z,7.67
2022-10-24T17:25:32.913Z,8.77
2022-10-24T17:27:59.808Z,11.53
2022-10-24T17:30:28.454Z,16.43
2022-10-24T17:32:55.702Z,12.60
2022-10-24T17:35:23.463Z,8.03
2022-10-24T17:38:06.807Z,8.77
2022-10-24T17:40:44.666Z,8.33
2022-10-24T17:43:16.510Z,10.87
2022-10-24T17:45:43.495Z,9.07
2022-10-24T17:48:11.017Z,9.33
2022-10-24T17:50:38.041Z,8.70
2022-10-24T17:53:04.943Z,13.97
2022-10-24T17:55:45.571Z,10.27
2022-10-24T17:58:13.664Z,10.73
2022-10-24T18:00:40.572Z,11.00
2022-10-24T18:03:08.805Z,11.57
2022-10-24T18:05:38.509Z,10.97
2022-10-24T18:08:06.901Z,9.17
2022-10-24T18:10:33.740Z,13.70
2022-10-24T18:13:00.832Z,15.70
2022-10-24T18:15:27.687Z,13.13
2022-10-24T18:17:54.563Z,10.73
2022-10-24T18:20:21.457Z,9.37
2022-10-24T18:22:48.600Z,10.50
2022-10-24T18:25:20.230Z,9.83
2022-10-24T18:27:50.142Z,9.10
2022-10-24T18:30:17.406Z,8.10
2022-10-24T18:32:44.722Z,11.17
2022-10-24T18:35:12.452Z,9.90
2022-10-24T18:37:39.533Z,11.20
2022-10-24T18:40:07.893Z,14.73
2022-10-24T18:42:53.600Z,12.53
2022-10-24T18:45:22.434Z,9.47
2022-10-24T18:47:49.986Z,8.87
2022-10-24T18:50:18.179Z,8.37
2022-10-24T18:52:50.600Z,7.60
2022-10-24T18:55:18.140Z,7.77
2022-10-24T18:57:45.382Z,7.97
2022-10-24T19:00:14.849Z,8.70
2022-10-24T19:02:47.925Z,9.97
2022-10-24T19:05:25.508Z,16.13
2022-10-24T19:07:52.907Z,14.57
2022-10-24T19:10:22.075Z,21.67
2022-10-24T19:12:49.916Z,12.13
2022-10-24T19:15:16.965Z,11.17
2022-10-24T19:17:44.119Z,15.97
2022-10-24T19:20:15.061Z,13.40
2022-10-24T19:22:42.010Z,14.57
2022-10-24T19:25:08.914Z,12.83
2022-10-24T19:27:35.659Z,13.10
2022-10-24T19:30:02.530Z,12.00
2022-10-24T19:32:29.505Z,12.40
2022-10-24T19:34:57.002Z,12.30
2022-10-24T19:37:24.072Z,13.87
2022-10-24T19:39:51.311Z,14.83
2022-10-24T19:42:18.468Z,14.93
2022-10-24T19:47:20.096Z,13.53
2022-10-24T19:49:47.586Z,13.40
2022-10-24T19:52:14.943Z,12.60
2022-10-24T19:54:42.046Z,13.23
2022-10-24T19:57:09.849Z,14.00
2022-10-24T19:59:36.864Z,14.07
2022-10-24T20:02:04.853Z,14.27
2022-10-24T20:04:32.451Z,13.83
2022-10-24T20:06:59.465Z,14.83
2022-10-24T20:09:26.645Z,13.83
2022-10-24T20:11:54.189Z,13.03
2022-10-24T20:14:25.100Z,15.07
2022-10-24T20:16:52.807Z,14.97
2022-10-24T20:19:20.203Z,14.57
2022-10-24T20:21:47.002Z,12.70
2022-10-24T20:24:13.917Z,12.60
2022-10-24T20:26:41.296Z,14.00
2022-10-24T20:29:08.491Z,12.87
2022-10-24T20:31:38.361Z,13.03
2022-10-24T20:34:09.763Z,12.77
2022-10-24T20:36:38.294Z,15.13
2022-10-24T20:39:06.493Z,13.97
2022-10-24T20:41:34.418Z,11.63
2022-10-24T20:44:01.753Z,14.23
2022-10-24T20:46:29.218Z,14.10
2022-10-24T20:48:56.063Z,13.40
2022-10-24T20:51:23.485Z,15.13
2022-10-24T20:53:50.231Z,14.50
2022-10-24T20:56:18.391Z,13.40
2022-10-24T20:58:46.424Z,15.67
2022-10-24T21:01:14.926Z,14.83
2022-10-24T21:03:42.284Z,15.00
2022-10-24T21:06:19.509Z,14.53
2022-10-24T21:08:48.652Z,15.90
2022-10-24T21:11:16.770Z,14.73
2022-10-24T21:13:43.858Z,12.77
2022-10-24T21:16:11.289Z,13.40
2022-10-24T21:18:38.137Z,13.60
2022-10-24T21:21:08.984Z,13.57
2022-10-24T21:23:35.921Z,14.67
2022-10-24T21:26:07.075Z,12.57
2022-10-24T21:28:34.315Z,9.93
2022-10-24T21:31:07.867Z,10.27
2022-10-24T21:33:35.131Z,9.40
2022-10-24T21:36:06.505Z,10.70
2022-10-24T21:38:33.484Z,8.93
2022-10-24T21:41:01.309Z,10.00
2022-10-24T21:43:28.222Z,8.70
2022-10-24T21:46:01.118Z,9.17
2022-10-24T21:48:27.974Z,9.33
2022-10-24T21:50:54.722Z,9.20
2022-10-24T21:53:21.612Z,9.83
2022-10-24T21:55:48.355Z,9.07
2022-10-24T21:58:15.244Z,9.63
2022-10-24T22:00:42.069Z,9.37
2022-10-24T22:03:08.833Z,9.90
2022-10-24T22:05:35.678Z,8.77
2022-10-24T22:08:02.562Z,10.53
2022-10-24T22:10:29.313Z,9.77
2022-10-24T22:12:56.570Z,9.00
2022-10-24T22:15:23.338Z,10.20
2022-10-24T22:17:50.189Z,9.83
2022-10-24T22:20:16.995Z,9.80
2022-10-24T22:22:43.848Z,10.77
2022-10-24T22:25:10.599Z,11.80
2022-10-24T22:27:37.416Z,11.03
2022-10-24T22:30:04.351Z,12.30
2022-10-24T22:32:31.244Z,11.40
2022-10-24T22:34:58.184Z,12.07
2022-10-24T22:37:27.680Z,12.03
2022-10-24T22:39:54.660Z,12.20
2022-10-24T22:42:21.771Z,11.63
2022-10-24T22:44:48.822Z,12.43
2022-10-24T22:47:24.489Z,11.50
2022-10-24T22:49:57.344Z,11.67
2022-10-24T22:52:24.352Z,12.80
2022-10-24T22:54:51.208Z,14.40
2022-10-24T22:57:18.229Z,12.53
2022-10-24T22:59:45.278Z,14.13
2022-10-24T23:02:14.898Z,15.40
2022-10-24T23:04:41.781Z,12.67
2022-10-24T23:07:15.019Z,13.60
2022-10-24T23:09:41.993Z,13.63
2022-10-24T23:12:16.684Z,12.40
2022-10-24T23:14:44.013Z,12.90
2022-10-24T23:17:23.349Z,14.10
2022-10-24T23:19:50.792Z,13.07
2022-10-24T23:22:31.497Z,16.57
2022-10-24T23:25:00.256Z,12.33
2022-10-24T23:27:27.054Z,13.53
2022-10-24T23:29:54.098Z,14.30
2022-10-24T23:32:25.237Z,14.77
2022-10-24T23:34:52.749Z,13.63
2022-10-24T23:37:35.043Z,13.33
2022-10-24T23:40:04.434Z,13.73
2022-10-24T23:42:31.478Z,14.33
2022-10-24T23:44:58.512Z,13.93
2022-10-24T23:47:31.078Z,16.27
2022-10-24T23:50:21.828Z,14.77
2022-10-24T23:53:00.404Z,15.70
2022-10-24T23:55:27.508Z,12.93
2022-10-24T23:57:54.267Z,15.80
